sensor_id;sensor_type;location;lat;lon;timestamp;pressure;altitude;pressure_sealevel;temperature;humidity
41513;BME280;27244;59.940;30.280;2023-07-30T00:02:08;100284.63;;;24.28;48.69
41513;BME280;27244;59.940;30.280;2023-07-30T00:04:35;100295.13;;;24.27;48.90
41513;BME280;27244;59.940;30.280;2023-07-30T00:07:02;100292.28;;;24.27;48.59
41513;BME280;27244;59.940;30.280;2023-07-30T00:09:29;100277.38;;;24.18;48.71
41513;BME280;27244;59.940;30.280;2023-07-30T00:11:56;100260.81;;;24.07;48.95
41513;BME280;27244;59.940;30.280;2023-07-30T00:14:23;100291.97;;;24.25;48.65
41513;BME280;27244;59.940;30.280;2023-07-30T00:16:52;100287.59;;;24.24;48.71
41513;BME280;27244;59.940;30.280;2023-07-30T00:19:19;100295.91;;;24.28;48.91
41513;BME280;27244;59.940;30.280;2023-07-30T00:21:46;100290.88;;;24.23;48.88
41513;BME280;27244;59.940;30.280;2023-07-30T00:24:14;100291.66;;;24.23;48.95
41513;BME280;27244;59.940;30.280;2023-07-30T00:26:42;100276.25;;;24.15;49.16
41513;BME280;27244;59.940;30.280;2023-07-30T00:29:09;100295.25;;;24.24;48.85
41513;BME280;27244;59.940;30.280;2023-07-30T00:31:36;100276.94;;;24.07;48.89
41513;BME280;27244;59.940;30.280;2023-07-30T00:34:07;100305.94;;;24.29;49.01
41513;BME280;27244;59.940;30.280;2023-07-30T00:36:40;100306.16;;;24.34;48.91
41513;BME280;27244;59.940;30.280;2023-07-30T00:39:07;100304.03;;;24.26;48.99
41513;BME280;27244;59.940;30.280;2023-07-30T00:41:37;100259.38;;;24.02;49.06
41513;BME280;27244;59.940;30.280;2023-07-30T00:44:04;100263.78;;;24.03;49.23
41513;BME280;27244;59.940;30.280;2023-07-30T00:46:31;100262.97;;;24.03;48.98
41513;BME280;27244;59.940;30.280;2023-07-30T00:48:59;100274.13;;;24.07;49.22
41513;BME280;27244;59.940;30.280;2023-07-30T00:51:27;100285.03;;;24.17;49.09
41513;BME280;27244;59.940;30.280;2023-07-30T00:53:56;100289.13;;;24.16;48.90
41513;BME280;27244;59.940;30.280;2023-07-30T00:56:23;100310.91;;;24.25;49.11
41513;BME280;27244;59.940;30.280;2023-07-30T00:58:52;100294.63;;;24.20;49.15
41513;BME280;27244;59.940;30.280;2023-07-30T01:01:19;100311.72;;;24.25;48.72
41513;BME280;27244;59.940;30.280;2023-07-30T01:03:50;100310.78;;;24.28;49.19
41513;BME280;27244;59.940;30.280;2023-07-30T01:06:17;100293.97;;;24.16;49.16
41513;BME280;27244;59.940;30.280;2023-07-30T01:08:47;100308.91;;;24.25;48.97
41513;BME280;27244;59.940;30.280;2023-07-30T01:11:14;100285.03;;;24.17;49.30
41513;BME280;27244;59.940;30.280;2023-07-30T01:13:42;100300.88;;;24.24;49.46
41513;BME280;27244;59.940;30.280;2023-07-30T01:16:10;100309.69;;;24.26;49.62
41513;BME280;27244;59.940;30.280;2023-07-30T01:18:38;100290.00;;;24.13;49.73
41513;BME280;27244;59.940;30.280;2023-07-30T01:21:06;100300.75;;;24.27;49.58
41513;BME280;27244;59.940;30.280;2023-07-30T01:23:33;100315.31;;;24.26;49.58
41513;BME280;27244;59.940;30.280;2023-07-30T01:26:04;100285.16;;;24.14;49.58
41513;BME280;27244;59.940;30.280;2023-07-30T01:28:36;100304.03;;;24.26;49.49
41513;BME280;27244;59.940;30.280;2023-07-30T01:31:05;100308.59;;;24.23;49.66
41513;BME280;27244;59.940;30.280;2023-07-30T01:33:33;100297.56;;;24.16;49.30
41513;BME280;27244;59.940;30.280;2023-07-30T01:36:01;100309.81;;;24.22;49.66
41513;BME280;27244;59.940;30.280;2023-07-30T01:38:30;100308.72;;;24.20;49.59
41513;BME280;27244;59.940;30.280;2023-07-30T01:40:58;100308.22;;;24.21;49.47
41513;BME280;27244;59.940;30.280;2023-07-30T01:43:25;100309.03;;;24.22;49.48
41513;BME280;27244;59.940;30.280;2023-07-30T01:45:52;100312.63;;;24.22;49.39
41513;BME280;27244;59.940;30.280;2023-07-30T01:48:19;100307.44;;;24.21;49.36
41513;BME280;27244;59.940;30.280;2023-07-30T01:50:47;100310.59;;;24.23;49.58
41513;BME280;27244;59.940;30.280;2023-07-30T01:53:14;100296.44;;;24.14;49.38
41513;BME280;27244;59.940;30.280;2023-07-30T01:55:43;100314.97;;;24.24;49.41
41513;BME280;27244;59.940;30.280;2023-07-30T01:58:11;100310.59;;;24.23;49.26
41513;BME280;27244;59.940;30.280;2023-07-30T02:00:39;100309.28;;;24.15;49.08
41513;BME280;27244;59.940;30.280;2023-07-30T02:03:06;100323.91;;;24.22;49.42
41513;BME280;27244;59.940;30.280;2023-07-30T02:05:33;100308.06;;;24.03;49.08
41513;BME280;27244;59.940;30.280;2023-07-30T02:08:00;100305.47;;;24.09;49.15
41513;BME280;27244;59.940;30.280;2023-07-30T02:10:30;100336.41;;;24.21;49.36
41513;BME280;27244;59.940;30.280;2023-07-30T02:12:58;100318.72;;;24.21;49.13
41513;BME280;27244;59.940;30.280;2023-07-30T02:15:26;100334.38;;;24.22;49.28
41513;BME280;27244;59.940;30.280;2023-07-30T02:17:53;100328.75;;;24.22;49.29
41513;BME280;27244;59.940;30.280;2023-07-30T02:20:20;100318.63;;;24.12;49.46
41513;BME280;27244;59.940;30.280;2023-07-30T02:22:47;100333.59;;;24.21;49.46
41513;BME280;27244;59.940;30.280;2023-07-30T02:25:14;100332.84;;;24.08;49.33
41513;BME280;27244;59.940;30.280;2023-07-30T02:27:41;100346.59;;;24.19;49.46
41513;BME280;27244;59.940;30.280;2023-07-30T02:30:10;100350.06;;;24.23;49.64
41513;BME280;27244;59.940;30.280;2023-07-30T02:32:37;100342.97;;;24.18;49.63
41513;BME280;27244;59.940;30.280;2023-07-30T02:35:05;100345.00;;;24.18;49.51
41513;BME280;27244;59.940;30.280;2023-07-30T02:37:32;100340.16;;;24.18;49.60
41513;BME280;27244;59.940;30.280;2023-07-30T02:40:00;100335.66;;;24.08;49.55
41513;BME280;27244;59.940;30.280;2023-07-30T02:42:30;100359.44;;;24.20;49.49
41513;BME280;27244;59.940;30.280;2023-07-30T02:44:57;100345.13;;;24.14;49.44
41513;BME280;27244;59.940;30.280;2023-07-30T02:47:26;100361.00;;;24.21;49.45
41513;BME280;27244;59.940;30.280;2023-07-30T02:49:53;100355.97;;;24.16;49.72
41513;BME280;27244;59.940;30.280;2023-07-30T02:52:20;100351.34;;;24.09;49.69
41513;BME280;27244;59.940;30.280;2023-07-30T02:54:47;100367.91;;;24.20;49.50
41513;BME280;27244;59.940;30.280;2023-07-30T02:57:14;100355.84;;;24.19;49.56
41513;BME280;27244;59.940;30.280;2023-07-30T02:59:41;100341.75;;;24.07;49.43
41513;BME280;27244;59.940;30.280;2023-07-30T03:02:08;100356.63;;;24.20;49.28
41513;BME280;27244;59.940;30.280;2023-07-30T03:04:37;100362.25;;;24.20;49.57
41513;BME280;27244;59.940;30.280;2023-07-30T03:07:05;100354.91;;;24.10;49.60
41513;BME280;27244;59.940;30.280;2023-07-30T03:09:32;100374.78;;;24.19;49.42
41513;BME280;27244;59.940;30.280;2023-07-30T03:11:59;100366.31;;;24.19;49.42
41513;BME280;27244;59.940;30.280;2023-07-30T03:14:26;100356.19;;;24.09;49.62
41513;BME280;27244;59.940;30.280;2023-07-30T03:16:53;100367.69;;;24.14;49.57
41513;BME280;27244;59.940;30.280;2023-07-30T03:19:20;100354.59;;;24.08;49.37
41513;BME280;27244;59.940;30.280;2023-07-30T03:21:49;100381.19;;;24.19;49.54
41513;BME280;27244;59.940;30.280;2023-07-30T03:24:16;100368.78;;;24.17;49.52
41513;BME280;27244;59.940;30.280;2023-07-30T03:26:43;100370.72;;;24.07;49.40
41513;BME280;27244;59.940;30.280;2023-07-30T03:29:10;100373.09;;;24.09;49.63
41513;BME280;27244;59.940;30.280;2023-07-30T03:31:37;100388.84;;;24.19;49.35
41513;BME280;27244;59.940;30.280;2023-07-30T03:34:05;100369.91;;;24.07;49.26
41513;BME280;27244;59.940;30.280;2023-07-30T03:36:32;100380.53;;;24.15;49.29
41513;BME280;27244;59.940;30.280;2023-07-30T03:39:01;100373.88;;;24.09;49.41
41513;BME280;27244;59.940;30.280;2023-07-30T03:41:28;100387.28;;;24.18;49.19
41513;BME280;27244;59.940;30.280;2023-07-30T03:43:55;100371.16;;;24.06;48.91
41513;BME280;27244;59.940;30.280;2023-07-30T03:46:22;100388.72;;;24.10;49.23
41513;BME280;27244;59.940;30.280;2023-07-30T03:48:49;100384.00;;;24.07;49.54
41513;BME280;27244;59.940;30.280;2023-07-30T03:51:16;100392.47;;;24.07;49.56
41513;BME280;27244;59.940;30.280;2023-07-30T03:53:43;100396.75;;;24.11;49.46
41513;BME280;27244;59.940;30.280;2023-07-30T03:56:12;100408.59;;;24.19;49.49
41513;BME280;27244;59.940;30.280;2023-07-30T03:58:39;100405.09;;;24.15;49.26
41513;BME280;27244;59.940;30.280;2023-07-30T04:01:06;100415.94;;;24.16;49.49
41513;BME280;27244;59.940;30.280;2023-07-30T04:03:34;100408.47;;;24.10;49.63
41513;BME280;27244;59.940;30.280;2023-07-30T04:06:01;100403.06;;;24.02;49.44
41513;BME280;27244;59.940;30.280;2023-07-30T04:08:28;100406.56;;;24.07;49.79
41513;BME280;27244;59.940;30.280;2023-07-30T04:10:55;100409.06;;;24.05;49.57
41513;BME280;27244;59.940;30.280;2023-07-30T04:13:24;100423.34;;;24.10;49.63
41513;BME280;27244;59.940;30.280;2023-07-30T04:15:51;100434.88;;;24.16;49.76
41513;BME280;27244;59.940;30.280;2023-07-30T04:18:18;100438.47;;;24.16;49.82
41513;BME280;27244;59.940;30.280;2023-07-30T04:20:46;100433.28;;;24.15;49.57
41513;BME280;27244;59.940;30.280;2023-07-30T04:23:13;100431.00;;;24.10;49.69
41513;BME280;27244;59.940;30.280;2023-07-30T04:25:40;100442.84;;;24.17;49.78
41513;BME280;27244;59.940;30.280;2023-07-30T04:28:07;100425.03;;;24.08;49.75
41513;BME280;27244;59.940;30.280;2023-07-30T04:30:36;100419.41;;;24.08;49.71
41513;BME280;27244;59.940;30.280;2023-07-30T04:33:06;100429.56;;;24.18;49.80
41513;BME280;27244;59.940;30.280;2023-07-30T04:35:35;100432.84;;;24.16;49.90
41513;BME280;27244;59.940;30.280;2023-07-30T04:38:02;100432.84;;;24.16;50.09
41513;BME280;27244;59.940;30.280;2023-07-30T04:40:29;100413.91;;;24.04;49.92
41513;BME280;27244;59.940;30.280;2023-07-30T04:42:56;100430.78;;;24.17;49.98
41513;BME280;27244;59.940;30.280;2023-07-30T04:45:24;100432.84;;;24.16;50.04
41513;BME280;27244;59.940;30.280;2023-07-30T04:47:53;100440.81;;;24.18;50.23
41513;BME280;27244;59.940;30.280;2023-07-30T04:50:20;100437.22;;;24.17;50.11
41513;BME280;27244;59.940;30.280;2023-07-30T04:52:47;100430.47;;;24.15;50.37
41513;BME280;27244;59.940;30.280;2023-07-30T04:55:14;100439.25;;;24.17;49.94
41513;BME280;27244;59.940;30.280;2023-07-30T04:57:41;100424.59;;;24.09;50.20
41513;BME280;27244;59.940;30.280;2023-07-30T05:00:09;100442.97;;;24.14;49.95
41513;BME280;27244;59.940;30.280;2023-07-30T05:02:36;100444.13;;;24.16;50.08
41513;BME280;27244;59.940;30.280;2023-07-30T05:05:05;100426.63;;;24.09;50.10
41513;BME280;27244;59.940;30.280;2023-07-30T05:07:33;100422.34;;;24.04;50.08
41513;BME280;27244;59.940;30.280;2023-07-30T05:10:00;100404.91;;;23.96;49.91
41513;BME280;27244;59.940;30.280;2023-07-30T05:12:27;100419.06;;;24.06;49.95
41513;BME280;27244;59.940;30.280;2023-07-30T05:14:54;100427.31;;;24.13;49.88
41513;BME280;27244;59.940;30.280;2023-07-30T05:17:21;100424.47;;;24.13;49.84
41513;BME280;27244;59.940;30.280;2023-07-30T05:19:48;100427.31;;;24.13;49.74
41513;BME280;27244;59.940;30.280;2023-07-30T05:22:17;100423.69;;;24.12;50.16
41513;BME280;27244;59.940;30.280;2023-07-30T05:24:44;100439.72;;;24.15;49.90
41513;BME280;27244;59.940;30.280;2023-07-30T05:27:11;100446.13;;;24.16;50.15
41513;BME280;27244;59.940;30.280;2023-07-30T05:29:38;100446.13;;;24.16;50.27
41513;BME280;27244;59.940;30.280;2023-07-30T05:32:06;100450.50;;;24.17;50.33
41513;BME280;27244;59.940;30.280;2023-07-30T05:34:34;100429.69;;;24.01;50.24
41513;BME280;27244;59.940;30.280;2023-07-30T05:37:01;100434.41;;;24.05;50.28
41513;BME280;27244;59.940;30.280;2023-07-30T05:39:29;100452.00;;;24.09;50.35
41513;BME280;27244;59.940;30.280;2023-07-30T05:41:56;100456.63;;;24.15;50.41
41513;BME280;27244;59.940;30.280;2023-07-30T05:44:23;100451.44;;;24.14;50.43
41513;BME280;27244;59.940;30.280;2023-07-30T05:46:50;100436.44;;;24.04;50.54
41513;BME280;27244;59.940;30.280;2023-07-30T05:49:17;100453.34;;;24.17;50.41
41513;BME280;27244;59.940;30.280;2023-07-30T05:51:45;100462.25;;;24.15;50.31
41513;BME280;27244;59.940;30.280;2023-07-30T05:54:12;100447.91;;;24.10;50.34
41513;BME280;27244;59.940;30.280;2023-07-30T05:56:40;100438.59;;;24.00;50.48
41513;BME280;27244;59.940;30.280;2023-07-30T05:59:07;100461.47;;;24.15;50.41
41513;BME280;27244;59.940;30.280;2023-07-30T06:01:35;100453.44;;;24.13;50.45
41513;BME280;27244;59.940;30.280;2023-07-30T06:04:02;100463.06;;;24.16;50.61
41513;BME280;27244;59.940;30.280;2023-07-30T06:06:29;100453.81;;;24.15;50.68
41513;BME280;27244;59.940;30.280;2023-07-30T06:08:56;100447.91;;;24.10;50.54
41513;BME280;27244;59.940;30.280;2023-07-30T06:11:23;100446.94;;;24.16;50.43
41513;BME280;27244;59.940;30.280;2023-07-30T06:13:52;100461.34;;;24.18;50.47
41513;BME280;27244;59.940;30.280;2023-07-30T06:16:19;100445.44;;;24.12;50.51
41513;BME280;27244;59.940;30.280;2023-07-30T06:18:46;100441.59;;;24.06;50.37
41513;BME280;27244;59.940;30.280;2023-07-30T06:21:13;100458.97;;;24.17;50.75
41513;BME280;27244;59.940;30.280;2023-07-30T06:23:40;100462.34;;;24.12;50.70
41513;BME280;27244;59.940;30.280;2023-07-30T06:26:07;100468.34;;;24.14;50.78
41513;BME280;27244;59.940;30.280;2023-07-30T06:28:35;100473.97;;;24.14;50.76
41513;BME280;27244;59.940;30.280;2023-07-30T06:31:03;100477.03;;;24.19;51.46
41513;BME280;27244;59.940;30.280;2023-07-30T06:33:30;100471.72;;;24.09;51.31
41513;BME280;27244;59.940;30.280;2023-07-30T06:35:57;100483.88;;;24.18;50.53
41513;BME280;27244;59.940;30.280;2023-07-30T06:38:24;100462.34;;;23.99;50.18
41513;BME280;27244;59.940;30.280;2023-07-30T06:40:52;100489.66;;;24.15;50.67
41513;BME280;27244;59.940;30.280;2023-07-30T06:43:19;100481.41;;;24.08;50.50
41513;BME280;27244;59.940;30.280;2023-07-30T06:45:46;100468.34;;;24.01;50.56
41513;BME280;27244;59.940;30.280;2023-07-30T06:48:15;100480.84;;;24.13;50.72
41513;BME280;27244;59.940;30.280;2023-07-30T06:50:42;100488.84;;;24.14;50.52
41513;BME280;27244;59.940;30.280;2023-07-30T06:53:09;100473.50;;;24.02;50.57
41513;BME280;27244;59.940;30.280;2023-07-30T06:55:36;100490.88;;;24.14;50.36
41513;BME280;27244;59.940;30.280;2023-07-30T06:58:03;100482.75;;;24.03;50.54
41513;BME280;27244;59.940;30.280;2023-07-30T07:00:31;100500.91;;;24.15;50.37
41513;BME280;27244;59.940;30.280;2023-07-30T07:02:58;100476.78;;;24.01;50.44
41513;BME280;27244;59.940;30.280;2023-07-30T07:05:26;100474.88;;;23.98;50.41
41513;BME280;27244;59.940;30.280;2023-07-30T07:07:53;100495.72;;;24.13;50.73
41513;BME280;27244;59.940;30.280;2023-07-30T07:10:20;100474.78;;;24.01;50.38
41513;BME280;27244;59.940;30.280;2023-07-30T07:12:48;100494.94;;;24.13;50.72
41513;BME280;27244;59.940;30.280;2023-07-30T07:15:15;100490.44;;;24.15;50.91
41513;BME280;27244;59.940;30.280;2023-07-30T07:17:42;100481.16;;;24.02;50.69
41513;BME280;27244;59.940;30.280;2023-07-30T07:20:09;100480.28;;;24.05;50.61
41513;BME280;27244;59.940;30.280;2023-07-30T07:22:38;100479.50;;;24.05;50.89
41513;BME280;27244;59.940;30.280;2023-07-30T07:25:05;100485.00;;;24.08;51.12
41513;BME280;27244;59.940;30.280;2023-07-30T07:27:33;100484.22;;;24.08;51.14
41513;BME280;27244;59.940;30.280;2023-07-30T07:30:00;100495.59;;;24.17;51.34
41513;BME280;27244;59.940;30.280;2023-07-30T07:32:27;100489.06;;;24.07;51.36
41513;BME280;27244;59.940;30.280;2023-07-30T07:34:54;100491.22;;;24.16;51.54
41513;BME280;27244;59.940;30.280;2023-07-30T07:37:21;100495.16;;;24.18;51.28
41513;BME280;27244;59.940;30.280;2023-07-30T07:39:50;100483.00;;;24.09;50.98
41513;BME280;27244;59.940;30.280;2023-07-30T07:42:17;100475.88;;;24.04;51.34
41513;BME280;27244;59.940;30.280;2023-07-30T07:44:44;100495.16;;;24.18;50.69
41513;BME280;27244;59.940;30.280;2023-07-30T07:47:11;100467.66;;;23.97;50.87
41513;BME280;27244;59.940;30.280;2023-07-30T07:49:39;100507.56;;;24.21;50.99
41513;BME280;27244;59.940;30.280;2023-07-30T07:52:06;100503.19;;;24.20;50.81
41513;BME280;27244;59.940;30.280;2023-07-30T07:54:34;100503.19;;;24.20;50.95
41513;BME280;27244;59.940;30.280;2023-07-30T07:57:03;100506.06;;;24.29;51.34
41513;BME280;27244;59.940;30.280;2023-07-30T07:59:30;100499.31;;;24.26;51.45
41513;BME280;27244;59.940;30.280;2023-07-30T08:01:57;100505.97;;;24.32;50.93
41513;BME280;27244;59.940;30.280;2023-07-30T08:04:24;100506.19;;;24.25;50.96
41513;BME280;27244;59.940;30.280;2023-07-30T08:06:51;100501.47;;;24.22;51.29
41513;BME280;27244;59.940;30.280;2023-07-30T08:09:18;100507.31;;;24.28;51.42
41513;BME280;27244;59.940;30.280;2023-07-30T08:11:45;100535.94;;;24.39;51.09
41513;BME280;27244;59.940;30.280;2023-07-30T08:14:14;100498.19;;;24.24;51.21
41513;BME280;27244;59.940;30.280;2023-07-30T08:16:41;100496.63;;;24.23;51.41
41513;BME280;27244;59.940;30.280;2023-07-30T08:19:08;100517.47;;;24.38;51.28
41513;BME280;27244;59.940;30.280;2023-07-30T08:21:35;100510.69;;;24.35;51.23
41513;BME280;27244;59.940;30.280;2023-07-30T08:24:03;100514.16;;;24.39;51.45
41513;BME280;27244;59.940;30.280;2023-07-30T08:26:30;100513.19;;;24.33;51.26
41513;BME280;27244;59.940;30.280;2023-07-30T08:28:58;100506.19;;;24.38;51.54
41513;BME280;27244;59.940;30.280;2023-07-30T08:31:26;100516.06;;;24.42;51.75
41513;BME280;27244;59.940;30.280;2023-07-30T08:33:53;100516.06;;;24.42;51.58
41513;BME280;27244;59.940;30.280;2023-07-30T08:36:21;100513.25;;;24.42;51.46
41513;BME280;27244;59.940;30.280;2023-07-30T08:38:48;100520.03;;;24.45;51.69
41513;BME280;27244;59.940;30.280;2023-07-30T08:41:15;100514.06;;;24.43;51.65
41513;BME280;27244;59.940;30.280;2023-07-30T08:43:42;100509.31;;;24.40;51.45
41513;BME280;27244;59.940;30.280;2023-07-30T08:46:14;100517.97;;;24.45;51.48
41513;BME280;27244;59.940;30.280;2023-07-30T08:48:43;100519.56;;;24.46;51.47
41513;BME280;27244;59.940;30.280;2023-07-30T08:51:11;100513.59;;;24.44;51.42
41513;BME280;27244;59.940;30.280;2023-07-30T08:53:38;100520.03;;;24.45;51.61
41513;BME280;27244;59.940;30.280;2023-07-30T08:56:06;100527.22;;;24.46;51.33
41513;BME280;27244;59.940;30.280;2023-07-30T08:58:35;100525.69;;;24.45;51.69
41513;BME280;27244;59.940;30.280;2023-07-30T09:01:08;100521.47;;;24.49;51.22
41513;BME280;27244;59.940;30.280;2023-07-30T09:03:38;100523.19;;;24.47;51.24
41513;BME280;27244;59.940;30.280;2023-07-30T09:06:06;100517.53;;;24.47;51.46
41513;BME280;27244;59.940;30.280;2023-07-30T09:08:34;100513.94;;;24.46;51.38
41513;BME280;27244;59.940;30.280;2023-07-30T09:11:06;100511.66;;;24.54;51.44
41513;BME280;27244;59.940;30.280;2023-07-30T09:13:37;100510.97;;;24.50;51.57
41513;BME280;27244;59.940;30.280;2023-07-30T09:16:09;100522.25;;;24.50;51.45
41513;BME280;27244;59.940;30.280;2023-07-30T09:18:40;100524.28;;;24.49;51.35
41513;BME280;27244;59.940;30.280;2023-07-30T09:21:10;100522.63;;;24.52;51.63
41513;BME280;27244;59.940;30.280;2023-07-30T09:23:41;100515.72;;;24.53;51.66
41513;BME280;27244;59.940;30.280;2023-07-30T09:26:08;100522.25;;;24.50;51.39
41513;BME280;27244;59.940;30.280;2023-07-30T09:28:35;100522.25;;;24.50;51.74
41513;BME280;27244;59.940;30.280;2023-07-30T09:31:03;100528.69;;;24.50;51.68
41513;BME280;27244;59.940;30.280;2023-07-30T09:33:31;100517.84;;;24.49;51.47
41513;BME280;27244;59.940;30.280;2023-07-30T09:35:58;100521.03;;;24.51;51.66
41513;BME280;27244;59.940;30.280;2023-07-30T09:38:26;100518.22;;;24.51;51.72
41513;BME280;27244;59.940;30.280;2023-07-30T09:41:00;100522.94;;;24.54;51.55
41513;BME280;27244;59.940;30.280;2023-07-30T09:43:29;100514.06;;;24.43;51.41
41513;BME280;27244;59.940;30.280;2023-07-30T09:46:01;100517.63;;;24.56;51.64
41513;BME280;27244;59.940;30.280;2023-07-30T09:48:29;100501.66;;;24.40;51.69
41513;BME280;27244;59.940;30.280;2023-07-30T09:50:58;100525.75;;;24.54;51.67
41513;BME280;27244;59.940;30.280;2023-07-30T09:53:28;100528.91;;;24.56;51.72
41513;BME280;27244;59.940;30.280;2023-07-30T09:56:00;100527.34;;;24.55;51.75
41513;BME280;27244;59.940;30.280;2023-07-30T09:58:28;100530.28;;;24.52;51.71
41513;BME280;27244;59.940;30.280;2023-07-30T10:00:57;100522.94;;;24.54;51.72
41513;BME280;27244;59.940;30.280;2023-07-30T10:03:25;100520.69;;;24.49;51.82
41513;BME280;27244;59.940;30.280;2023-07-30T10:05:54;100532.97;;;24.55;52.00
41513;BME280;27244;59.940;30.280;2023-07-30T10:08:24;100527.66;;;24.57;52.02
41513;BME280;27244;59.940;30.280;2023-07-30T10:10:54;100528.56;;;24.54;51.89
41513;BME280;27244;59.940;30.280;2023-07-30T10:13:22;100529.38;;;24.55;51.83
41513;BME280;27244;59.940;30.280;2023-07-30T10:15:50;100531.75;;;24.56;51.57
41513;BME280;27244;59.940;30.280;2023-07-30T10:18:18;100525.44;;;24.52;51.90
41513;BME280;27244;59.940;30.280;2023-07-30T10:20:52;100523.91;;;24.60;51.67
41513;BME280;27244;59.940;30.280;2023-07-30T10:23:20;100519.13;;;24.48;51.76
41513;BME280;27244;59.940;30.280;2023-07-30T10:25:48;100504.91;;;24.39;51.21
41513;BME280;27244;59.940;30.280;2023-07-30T10:28:31;100530.56;;;24.66;51.28
41513;BME280;27244;59.940;30.280;2023-07-30T10:30:58;100539.78;;;24.79;50.80
41513;BME280;27244;59.940;30.280;2023-07-30T10:33:44;100526.75;;;24.60;50.89
41513;BME280;27244;59.940;30.280;2023-07-30T10:36:11;100531.06;;;24.52;51.31
41513;BME280;27244;59.940;30.280;2023-07-30T10:38:38;100539.53;;;24.52;51.01
41513;BME280;27244;59.940;30.280;2023-07-30T10:41:10;100546.28;;;24.55;51.31
41513;BME280;27244;59.940;30.280;2023-07-30T10:43:39;100538.25;;;24.53;51.63
41513;BME280;27244;59.940;30.280;2023-07-30T10:46:09;100539.06;;;24.54;52.30
41513;BME280;27244;59.940;30.280;2023-07-30T10:48:37;100545.50;;;24.54;51.26
41513;BME280;27244;59.940;30.280;2023-07-30T10:51:07;100543.25;;;24.49;51.08
41513;BME280;27244;59.940;30.280;2023-07-30T10:53:34;100548.78;;;24.53;51.29
41513;BME280;27244;59.940;30.280;2023-07-30T10:56:03;100527.94;;;24.37;51.46
41513;BME280;27244;59.940;30.280;2023-07-30T10:58:31;100512.06;;;24.31;51.64
41513;BME280;27244;59.940;30.280;2023-07-30T11:01:01;100545.06;;;24.56;51.18
41513;BME280;27244;59.940;30.280;2023-07-30T11:03:29;100550.59;;;24.46;51.14
41513;BME280;27244;59.940;30.280;2023-07-30T11:05:57;100535.38;;;24.44;50.92
41513;BME280;27244;59.940;30.280;2023-07-30T11:08:35;100561.38;;;24.61;50.96
41513;BME280;27244;59.940;30.280;2023-07-30T11:11:03;100562.88;;;24.53;50.96
41513;BME280;27244;59.940;30.280;2023-07-30T11:13:35;100549.22;;;24.51;50.73
41513;BME280;27244;59.940;30.280;2023-07-30T11:16:04;100555.53;;;24.55;50.85
41513;BME280;27244;59.940;30.280;2023-07-30T11:18:31;100551.59;;;24.53;50.63
41513;BME280;27244;59.940;30.280;2023-07-30T11:21:03;100560.72;;;24.57;50.57
41513;BME280;27244;59.940;30.280;2023-07-30T11:23:31;100557.69;;;24.51;50.53
41513;BME280;27244;59.940;30.280;2023-07-30T11:25:58;100553.41;;;24.46;50.42
41513;BME280;27244;59.940;30.280;2023-07-30T11:28:28;100548.56;;;24.47;50.29
41513;BME280;27244;59.940;30.280;2023-07-30T11:30:58;100548.78;;;24.53;50.19
41513;BME280;27244;59.940;30.280;2023-07-30T11:33:28;100537.53;;;24.40;50.22
41513;BME280;27244;59.940;30.280;2023-07-30T11:35:56;100533.34;;;24.32;50.45
41513;BME280;27244;59.940;30.280;2023-07-30T11:38:24;100560.50;;;24.51;50.12
41513;BME280;27244;59.940;30.280;2023-07-30T11:40:52;100560.28;;;24.45;50.39
41513;BME280;27244;59.940;30.280;2023-07-30T11:43:20;100540.13;;;24.34;50.26
41513;BME280;27244;59.940;30.280;2023-07-30T11:45:48;100550.38;;;24.41;50.22
41513;BME280;27244;59.940;30.280;2023-07-30T11:48:15;100557.00;;;24.47;50.64
41513;BME280;27244;59.940;30.280;2023-07-30T11:50:45;100553.28;;;24.50;50.72
41513;BME280;27244;59.940;30.280;2023-07-30T11:53:13;100567.38;;;24.50;50.59
41513;BME280;27244;59.940;30.280;2023-07-30T11:55:41;100562.09;;;24.52;50.81
41513;BME280;27244;59.940;30.280;2023-07-30T11:58:10;100556.44;;;24.52;50.51
41513;BME280;27244;59.940;30.280;2023-07-30T12:00:39;100546.09;;;24.36;50.38
41513;BME280;27244;59.940;30.280;2023-07-30T12:03:10;100552.28;;;24.44;50.60
41513;BME280;27244;59.940;30.280;2023-07-30T12:05:38;100556.22;;;24.46;50.41
41513;BME280;27244;59.940;30.280;2023-07-30T12:08:13;100570.31;;;24.59;50.55
41513;BME280;27244;59.940;30.280;2023-07-30T12:10:41;100565.34;;;24.50;50.46
41513;BME280;27244;59.940;30.280;2023-07-30T12:13:15;100552.16;;;24.47;50.77
41513;BME280;27244;59.940;30.280;2023-07-30T12:15:44;100570.06;;;24.54;50.63
41513;BME280;27244;59.940;30.280;2023-07-30T12:18:12;100568.97;;;24.51;50.21
41513;BME280;27244;59.940;30.280;2023-07-30T12:20:39;100569.75;;;24.52;50.49
41513;BME280;27244;59.940;30.280;2023-07-30T12:23:08;100567.72;;;24.52;50.54
41513;BME280;27244;59.940;30.280;2023-07-30T12:25:35;100571.00;;;24.50;50.55
41513;BME280;27244;59.940;30.280;2023-07-30T12:28:02;100543.06;;;24.31;50.61
41513;BME280;27244;59.940;30.280;2023-07-30T12:30:29;100561.06;;;24.46;50.56
41513;BME280;27244;59.940;30.280;2023-07-30T12:32:57;100551.94;;;24.42;50.53
41513;BME280;27244;59.940;30.280;2023-07-30T12:35:24;100533.94;;;24.27;51.07
41513;BME280;27244;59.940;30.280;2023-07-30T12:37:51;100562.22;;;24.48;51.23
41513;BME280;27244;59.940;30.280;2023-07-30T12:40:20;100547.69;;;24.37;51.15
41513;BME280;27244;59.940;30.280;2023-07-30T12:42:47;100539.78;;;24.32;51.77
41513;BME280;27244;59.940;30.280;2023-07-30T12:45:14;100559.84;;;24.47;51.81